Sigfox identifier Datetime Temperature Humidity SNR
003954A1 2018-10-09 09:27:28 20.9 39 17.2
003954A1 2018-10-09 08:18:58 20.9 40 16.9
003954A1 2018-10-09 07:10:32 21 39 16.5
003954A1 2018-10-09 06:02:07 21 39 19.1
003954A1 2018-10-09 04:53:42 20.9 38 19.1
003954A1 2018-10-09 01:28:28 21 38 20.5
003954A1 2018-10-09 00:20:03 21 37 20.2
003954A1 2018-10-08 23:11:36 21 37 20.1
003954A1 2018-10-08 22:03:10 21 37 21.5
003954A1 2018-10-08 20:54:43 21 37 21.5
003954A1 2018-10-08 19:46:19 21 37 21.5
003954A1 2018-10-08 18:37:48 21 37 21.4
003954A1 2018-10-08 17:29:22 21 36 21.3
003954A1 2018-10-08 16:20:57 21 36 21.3
003954A1 2018-10-08 15:12:27 20.9 36 21.2
003954A1 2018-10-08 14:04:02 20.8 36 21.2
003954A1 2018-10-08 12:55:35 20.8 35 21.2
003954A1 2018-10-08 11:47:07 20.7 36 21.2
003954A1 2018-10-08 09:30:18 20.4 29 21.2
003954A1 2018-10-08 08:21:47 20.4 30 21.2
003954A1 2018-10-08 07:13:16 20.4 31 21.1
003954A1 2018-10-08 06:04:47 20.4 32 21.1
003954A1 2018-10-08 04:56:15 20.4 32 21.1
003954A1 2018-10-07 23:13:39 20.6 35 21.2
003954A1 2018-10-07 20:56:40 20.6 37 21.2
003954A1 2018-10-07 15:14:20 20.6 37 21.4
003954A1 2018-10-07 12:57:19 20.6 37 20
003954A1 2018-10-07 11:48:55 20.6 37 20.1
003954A1 2018-10-07 10:40:25 20.6 37 20.3
003954A1 2018-10-07 09:31:56 20.6 37 18
003954A1 2018-10-06 19:50:01 20.8 39 18.2
003954A1 2018-10-06 15:16:09 20.8 39 18.4
003954A1 2018-10-06 12:59:12 20.9 39 18.6
003954A1 2018-10-06 11:50:39 20.8 39 11.7
003954A1 2018-10-06 09:33:39 20.8 38 11.8
003954A1 2018-10-06 08:25:13 20.8 39 12.1
003954A1 2018-10-05 17:35:04 21.5 45 12.2
003954A1 2018-10-05 14:09:45 21.5 46 11.9
003954A1 2018-10-05 11:52:50 21.2 42 11.5
003954A1 2018-10-05 10:44:19 21 39 11.8
003954A1 2018-10-05 06:10:13 20.6 29 10.7
003954A1 2018-10-05 05:01:41 20.6 29 10.4
003954A1 2018-10-05 02:44:33 20.8 29 10.8
003954A1 2018-10-05 00:27:23 20.9 30 10.3
003954A1 2018-10-04 23:18:51 21 30 10.8
003954A1 2018-10-04 22:10:18 21 30 11.5
003954A1 2018-10-04 21:01:48 21 30 12.4
003954A1 2018-10-04 19:53:18 21 30 12.9
003954A1 2018-10-04 17:36:15 21.1 30 13.6
003954A1 2018-10-04 16:27:33 20.5 45 0